createdAt,value
2022-08-22T00:00:19.285Z,0.00
2022-08-22T00:01:19.204Z,0.00
2022-08-22T00:02:19.148Z,0.00
2022-08-22T00:02:53.826Z,0.00
2022-08-22T00:02:54.720Z,0.00
2022-08-22T00:02:59.714Z,0.00
2022-08-22T00:03:08.057Z,0.00
2022-08-22T00:03:16.135Z,0.00
2022-08-22T00:04:18.976Z,0.00
2022-08-22T00:05:18.926Z,0.00
2022-08-22T00:06:18.833Z,0.00
2022-08-22T00:07:18.752Z,0.00
2022-08-22T00:08:18.679Z,0.00
2022-08-22T00:09:18.606Z,0.00
2022-08-22T00:10:25.242Z,0.00
2022-08-22T00:11:18.458Z,0.00
2022-08-22T00:12:18.383Z,0.00
2022-08-22T00:13:18.303Z,0.00
2022-08-22T00:14:18.229Z,0.00
2022-08-22T00:15:41.936Z,0.00
2022-08-22T00:16:18.079Z,0.00
2022-08-22T00:17:18.006Z,0.00
2022-08-22T00:18:17.934Z,0.00
2022-08-22T00:19:17.852Z,0.00
2022-08-22T00:20:17.777Z,0.00
2022-08-22T00:21:17.711Z,0.00
2022-08-22T00:22:17.627Z,0.00
2022-08-22T00:23:17.552Z,0.00
2022-08-22T00:24:17.475Z,0.00
2022-08-22T00:25:24.689Z,0.00
2022-08-22T00:26:17.328Z,0.00
2022-08-22T00:27:17.256Z,0.00
2022-08-22T00:28:17.177Z,0.00
2022-08-22T00:29:17.099Z,0.00
2022-08-22T00:30:17.021Z,0.00
2022-08-22T00:31:16.953Z,0.00
2022-08-22T00:32:16.878Z,0.00
2022-08-22T00:33:16.802Z,0.00
2022-08-22T00:34:16.722Z,0.00
2022-08-22T00:35:16.650Z,0.00
2022-08-22T00:36:16.578Z,0.00
2022-08-22T00:37:16.508Z,0.00
2022-08-22T00:38:16.425Z,0.00
2022-08-22T00:39:16.348Z,0.00
2022-08-22T00:40:16.326Z,0.00
2022-08-22T00:41:16.206Z,0.00
2022-08-22T00:42:16.126Z,0.00
2022-08-22T00:43:16.051Z,0.00
2022-08-22T00:44:15.973Z,0.00
2022-08-22T00:45:15.898Z,0.00
2022-08-22T00:46:15.822Z,0.00
2022-08-22T00:47:15.753Z,0.00
2022-08-22T00:48:15.670Z,0.00
2022-08-22T00:49:15.595Z,0.00
2022-08-22T00:50:15.522Z,0.00
2022-08-22T00:51:15.451Z,0.00
2022-08-22T00:52:15.376Z,0.00
2022-08-22T00:53:15.300Z,0.00
2022-08-22T00:54:17.623Z,0.00
2022-08-22T00:55:15.148Z,0.00
2022-08-22T00:56:15.078Z,0.00
2022-08-22T00:57:15.000Z,0.00
2022-08-22T00:58:14.922Z,0.00
2022-08-22T00:59:23.047Z,0.00
2022-08-22T01:00:14.775Z,0.00
2022-08-22T01:01:14.729Z,0.00
2022-08-22T01:02:14.623Z,0.00
2022-08-22T01:03:14.547Z,0.00
2022-08-22T01:04:14.469Z,0.00
2022-08-22T01:05:14.396Z,0.00
2022-08-22T01:06:14.318Z,0.00
2022-08-22T01:07:14.247Z,0.00
2022-08-22T01:08:14.165Z,0.00
2022-08-22T01:09:14.091Z,0.00
2022-08-22T01:10:14.021Z,0.00
2022-08-22T01:11:13.943Z,0.00
2022-08-22T01:12:13.871Z,0.00
2022-08-22T01:13:13.792Z,0.00
2022-08-22T01:14:13.718Z,0.00
2022-08-22T01:15:13.646Z,0.00
2022-08-22T01:16:13.571Z,0.00
2022-08-22T01:17:13.493Z,0.00
2022-08-22T01:18:13.419Z,0.00
2022-08-22T01:19:13.341Z,0.00
2022-08-22T01:20:13.267Z,0.00
2022-08-22T01:21:13.186Z,0.00
2022-08-22T01:22:13.115Z,0.00
2022-08-22T01:23:13.039Z,0.00
2022-08-22T01:24:12.963Z,0.00
2022-08-22T01:25:12.913Z,0.00
2022-08-22T01:26:12.816Z,0.00
2022-08-22T01:27:12.739Z,0.00
2022-08-22T01:28:12.661Z,0.00
2022-08-22T01:29:12.588Z,0.00
2022-08-22T01:30:12.509Z,0.00
2022-08-22T01:31:12.440Z,0.00
2022-08-22T01:32:12.362Z,0.00
2022-08-22T01:33:12.278Z,0.00
2022-08-22T01:34:13.006Z,0.00
2022-08-22T01:35:12.130Z,0.00
2022-08-22T01:36:12.057Z,0.00
2022-08-22T01:37:11.981Z,0.00
2022-08-22T01:38:11.907Z,0.00
2022-08-22T01:39:11.833Z,0.00
2022-08-22T01:40:11.811Z,0.00
2022-08-22T01:41:12.063Z,0.00
2022-08-22T01:42:11.601Z,0.00
2022-08-22T01:43:11.533Z,0.00
2022-08-22T01:44:11.452Z,0.00
2022-08-22T01:45:11.371Z,0.00
2022-08-22T01:46:11.296Z,0.00
2022-08-22T01:47:11.224Z,0.00
2022-08-22T01:48:11.142Z,0.00
2022-08-22T01:49:11.073Z,0.00
2022-08-22T01:50:10.993Z,0.00
2022-08-22T01:51:10.919Z,0.00
2022-08-22T01:52:10.847Z,0.00
2022-08-22T01:53:10.766Z,0.00
2022-08-22T01:54:10.695Z,0.00
2022-08-22T01:55:10.616Z,0.00
2022-08-22T01:56:10.537Z,0.00
2022-08-22T01:57:10.465Z,0.00
2022-08-22T01:58:10.390Z,0.00
2022-08-22T01:59:11.122Z,0.00
2022-08-22T02:00:10.244Z,0.00
2022-08-22T02:01:10.203Z,0.00
2022-08-22T02:02:10.092Z,0.00
2022-08-22T02:03:10.020Z,0.00
2022-08-22T02:04:09.936Z,0.00
2022-08-22T02:05:09.859Z,0.00
2022-08-22T02:06:09.782Z,0.00
2022-08-22T02:07:09.711Z,0.00
2022-08-22T02:08:09.632Z,0.00
2022-08-22T02:09:09.556Z,0.00
2022-08-22T02:10:09.487Z,0.00
2022-08-22T02:11:09.405Z,0.00
2022-08-22T02:12:13.885Z,0.00
2022-08-22T02:13:09.251Z,0.00
2022-08-22T02:14:09.178Z,0.00
2022-08-22T02:15:09.101Z,0.00
2022-08-22T02:16:09.025Z,0.00
2022-08-22T02:17:08.950Z,0.00
2022-08-22T02:18:08.872Z,0.00
2022-08-22T02:19:08.796Z,0.00
2022-08-22T02:20:08.722Z,0.00
2022-08-22T02:21:08.642Z,0.00
2022-08-22T02:22:08.568Z,0.00
2022-08-22T02:23:08.489Z,0.00
2022-08-22T02:24:08.412Z,0.00
2022-08-22T02:25:09.112Z,0.00
2022-08-22T02:26:08.262Z,0.00
2022-08-22T02:27:08.185Z,0.00
2022-08-22T02:28:08.110Z,0.00
2022-08-22T02:29:08.035Z,0.00
2022-08-22T02:30:07.953Z,0.00
2022-08-22T02:31:07.880Z,0.00
2022-08-22T02:32:07.807Z,0.00
2022-08-22T02:33:07.734Z,0.00
2022-08-22T02:34:07.655Z,0.00
2022-08-22T02:35:07.574Z,0.00
2022-08-22T02:36:07.503Z,0.00
2022-08-22T02:37:07.422Z,0.00
2022-08-22T02:38:07.345Z,0.00
2022-08-22T02:39:07.275Z,0.00
2022-08-22T02:40:07.248Z,0.00
2022-08-22T02:41:07.123Z,0.00
2022-08-22T02:42:07.042Z,0.00
2022-08-22T02:43:06.972Z,0.00
2022-08-22T02:44:06.891Z,0.00
2022-08-22T02:45:06.813Z,0.00
2022-08-22T02:46:07.134Z,0.00
2022-08-22T02:47:06.662Z,0.00
2022-08-22T02:48:06.583Z,0.00
2022-08-22T02:49:06.515Z,0.00
2022-08-22T02:50:06.437Z,0.00
2022-08-22T02:51:06.360Z,0.00
2022-08-22T02:52:06.284Z,0.00
2022-08-22T02:53:06.200Z,0.00
2022-08-22T02:54:06.137Z,0.00
2022-08-22T02:55:06.056Z,0.00
2022-08-22T02:56:05.973Z,0.00
2022-08-22T02:57:05.898Z,0.00
2022-08-22T02:58:05.822Z,0.00
2022-08-22T02:59:05.751Z,0.00
2022-08-22T03:00:05.672Z,0.00
2022-08-22T03:01:05.638Z,0.00
2022-08-22T03:02:05.522Z,0.00
2022-08-22T03:03:05.441Z,0.00
2022-08-22T03:04:05.410Z,0.00
2022-08-22T03:05:05.289Z,0.00
2022-08-22T03:06:05.219Z,0.00
2022-08-22T03:07:05.138Z,0.00
2022-08-22T03:08:05.060Z,0.00
2022-08-22T03:09:04.983Z,0.00
2022-08-22T03:10:04.911Z,0.00
2022-08-22T03:11:04.829Z,0.00
2022-08-22T03:12:04.751Z,0.00
2022-08-22T03:13:04.679Z,0.00
2022-08-22T03:14:04.600Z,0.00
2022-08-22T03:15:04.522Z,0.00
2022-08-22T03:16:04.454Z,0.00
2022-08-22T03:17:04.374Z,0.00
2022-08-22T03:18:04.299Z,0.00
2022-08-22T03:19:04.218Z,0.00
2022-08-22T03:20:04.146Z,0.00
2022-08-22T03:21:04.063Z,0.00
2022-08-22T03:22:04.005Z,0.00
2022-08-22T03:23:03.918Z,0.00
2022-08-22T03:24:03.842Z,0.00
2022-08-22T03:25:03.762Z,0.00
2022-08-22T03:26:07.668Z,0.00
2022-08-22T03:27:03.612Z,0.00
2022-08-22T03:28:03.558Z,0.00
2022-08-22T03:29:03.456Z,0.00
2022-08-22T03:30:03.375Z,0.00
2022-08-22T03:31:03.299Z,0.00
2022-08-22T03:32:03.227Z,0.00
2022-08-22T03:33:03.156Z,0.00
2022-08-22T03:34:03.074Z,0.00
2022-08-22T03:35:02.992Z,0.00
2022-08-22T03:36:02.918Z,0.00
2022-08-22T03:37:02.841Z,0.00
2022-08-22T03:38:02.769Z,0.00
2022-08-22T03:39:02.686Z,0.00
2022-08-22T03:40:02.652Z,0.00
2022-08-22T03:41:02.530Z,0.00
2022-08-22T03:42:02.465Z,0.00
2022-08-22T03:43:02.387Z,0.00
2022-08-22T03:44:02.308Z,0.00
2022-08-22T03:45:02.231Z,0.00
2022-08-22T03:46:02.147Z,0.00
2022-08-22T03:47:02.072Z,0.00
2022-08-22T03:48:01.999Z,0.00
2022-08-22T03:49:01.922Z,0.00
2022-08-22T03:50:01.845Z,0.00
2022-08-22T03:51:01.768Z,0.00
2022-08-22T03:52:01.691Z,4.00
2022-08-22T03:53:01.616Z,4.00
2022-08-22T03:54:01.541Z,0.00
2022-08-22T03:55:01.464Z,4.00
2022-08-22T03:56:01.382Z,4.00
2022-08-22T03:57:08.391Z,4.00
2022-08-22T03:59:09.997Z,8.00
2022-08-22T04:00:04.967Z,12.00
2022-08-22T04:01:04.924Z,12.00
2022-08-22T04:02:42.134Z,12.00
2022-08-22T04:03:04.728Z,12.00
2022-08-22T04:04:04.653Z,16.00
2022-08-22T04:05:04.623Z,16.00
2022-08-22T04:06:04.493Z,20.00
2022-08-22T04:07:05.429Z,24.00
2022-08-22T04:08:04.346Z,28.00
2022-08-22T04:09:04.296Z,32.00
2022-08-22T04:10:04.187Z,36.00
2022-08-22T04:11:04.113Z,36.00
2022-08-22T04:12:04.032Z,44.00
2022-08-22T04:13:03.987Z,48.00
2022-08-22T04:14:03.884Z,52.00
2022-08-22T04:15:03.808Z,56.00
2022-08-22T04:16:03.732Z,60.00
2022-08-22T04:17:03.662Z,64.00
2022-08-22T04:18:03.574Z,72.00
2022-08-22T04:19:03.501Z,80.00
2022-08-22T04:20:03.431Z,84.00
2022-08-22T04:21:03.341Z,88.00
2022-08-22T04:22:03.262Z,92.00
2022-08-22T04:23:03.194Z,100.00
2022-08-22T04:24:03.112Z,104.00
2022-08-22T04:25:07.271Z,112.00
2022-08-22T04:26:08.554Z,120.00
2022-08-22T04:27:02.891Z,128.00
2022-08-22T04:28:02.809Z,132.00
2022-08-22T04:29:02.730Z,140.00
2022-08-22T04:30:02.663Z,148.00
2022-08-22T04:31:02.576Z,156.00
2022-08-22T04:32:02.496Z,160.00
2022-08-22T04:33:02.424Z,168.00
2022-08-22T04:34:02.344Z,180.00
2022-08-22T04:35:02.262Z,188.00
2022-08-22T04:36:02.191Z,192.00
2022-08-22T04:37:02.114Z,200.00
2022-08-22T04:38:02.037Z,208.00
2022-08-22T04:39:01.955Z,216.00
2022-08-22T04:40:02.001Z,224.00
2022-08-22T04:41:04.536Z,232.00
2022-08-22T04:42:16.310Z,240.00
2022-08-22T04:43:01.648Z,248.00
2022-08-22T04:44:01.572Z,260.00
2022-08-22T04:45:01.496Z,268.00
2022-08-22T04:46:01.420Z,276.00
2022-08-22T04:47:01.345Z,284.00
2022-08-22T04:48:01.374Z,292.00
2022-08-22T04:49:01.183Z,300.00
2022-08-22T04:50:01.107Z,312.00
2022-08-22T04:51:01.033Z,320.00
2022-08-22T04:52:00.956Z,328.00
2022-08-22T04:53:00.881Z,340.00
2022-08-22T04:54:00.805Z,348.00
2022-08-22T04:55:00.721Z,356.00
2022-08-22T04:56:04.122Z,364.00
2022-08-22T04:57:00.567Z,372.00
2022-08-22T04:58:00.668Z,384.00
2022-08-22T04:59:00.412Z,392.00
2022-08-22T05:00:00.338Z,404.00
2022-08-22T05:01:00.262Z,412.00
2022-08-22T05:02:00.249Z,424.00
2022-08-22T05:03:00.107Z,436.00
2022-08-22T05:04:00.035Z,448.00
2022-08-22T05:04:59.953Z,456.00
2022-08-22T05:05:59.876Z,472.00
2022-08-22T05:06:59.796Z,484.00
2022-08-22T05:07:59.917Z,496.00
2022-08-22T05:08:59.644Z,512.00
2022-08-22T05:09:59.567Z,528.00
2022-08-22T05:10:59.492Z,548.00
2022-08-22T05:11:59.418Z,568.00
2022-08-22T05:12:59.336Z,580.00
2022-08-22T05:13:59.260Z,600.00
2022-08-22T05:14:59.180Z,620.00
2022-08-22T05:15:59.106Z,636.00
2022-08-22T05:16:59.023Z,656.00
2022-08-22T05:17:59.167Z,668.00
2022-08-22T05:18:58.873Z,680.00
2022-08-22T05:19:58.792Z,704.00
2022-08-22T05:20:58.722Z,728.00
2022-08-22T05:21:58.645Z,760.00
2022-08-22T05:22:58.563Z,796.00
2022-08-22T05:23:58.489Z,820.00
2022-08-22T05:24:58.409Z,820.00
2022-08-22T05:25:58.329Z,832.00
2022-08-22T05:26:58.252Z,840.00
2022-08-22T05:27:58.322Z,856.00
2022-08-22T05:28:58.097Z,872.00
2022-08-22T05:29:58.030Z,900.00
2022-08-22T05:30:57.947Z,912.00
2022-08-22T05:31:57.867Z,944.00
2022-08-22T05:32:57.795Z,936.00
2022-08-22T05:33:57.716Z,956.00
2022-08-22T05:34:57.640Z,972.00
2022-08-22T05:35:58.144Z,988.00
2022-08-22T05:36:57.482Z,1000.00
2022-08-22T05:37:57.569Z,1004.00
2022-08-22T05:38:57.328Z,1012.00
2022-08-22T05:39:57.318Z,1008.00
2022-08-22T05:40:57.174Z,1008.00
2022-08-22T05:41:57.096Z,1028.00
2022-08-22T05:42:57.025Z,1040.00
2022-08-22T05:43:56.943Z,1048.00
2022-08-22T05:44:56.871Z,1052.00
2022-08-22T05:45:56.790Z,1068.00
2022-08-22T05:46:56.716Z,1084.00
2022-08-22T05:47:56.636Z,1092.00
2022-08-22T05:48:56.562Z,1100.00
2022-08-22T05:49:56.484Z,1108.00
2022-08-22T05:50:56.405Z,1116.00
2022-08-22T05:51:56.330Z,1120.00
2022-08-22T05:52:56.251Z,1120.00
2022-08-22T05:53:56.171Z,1076.00
2022-08-22T05:54:56.096Z,996.00
2022-08-22T05:55:56.029Z,1032.00
2022-08-22T05:56:55.944Z,1092.00
2022-08-22T05:57:55.872Z,1088.00
2022-08-22T05:58:55.792Z,1084.00
2022-08-22T05:59:55.711Z,1080.00
2022-08-22T06:00:55.634Z,1088.00
2022-08-22T06:01:55.580Z,1104.00
2022-08-22T06:02:55.482Z,1104.00
2022-08-22T06:03:55.404Z,1092.00
2022-08-22T06:04:55.332Z,1080.00
2022-08-22T06:05:55.252Z,1076.00
2022-08-22T06:06:55.176Z,1104.00
2022-08-22T06:07:55.144Z,1108.00
2022-08-22T06:08:55.026Z,1136.00
2022-08-22T06:09:54.942Z,1144.00
2022-08-22T06:10:54.868Z,1164.00
2022-08-22T06:11:54.788Z,1168.00
2022-08-22T06:12:54.712Z,1200.00
2022-08-22T06:13:54.640Z,1208.00
2022-08-22T06:14:54.559Z,1188.00
2022-08-22T06:15:54.487Z,1092.00
2022-08-22T06:16:54.410Z,1144.00
2022-08-22T06:17:54.330Z,1272.00
2022-08-22T06:18:54.254Z,1288.00
2022-08-22T06:19:54.179Z,1308.00
2022-08-22T06:20:54.097Z,1316.00
2022-08-22T06:21:54.021Z,1312.00
2022-08-22T06:22:53.947Z,1304.00
2022-08-22T06:23:53.868Z,1244.00
2022-08-22T06:24:53.796Z,1228.00
2022-08-22T06:25:53.727Z,1220.00
2022-08-22T06:26:53.644Z,1212.00
2022-08-22T06:27:53.625Z,1264.00
2022-08-22T06:28:54.789Z,1280.00
2022-08-22T06:29:53.408Z,1320.00
2022-08-22T06:30:53.332Z,1300.00
2022-08-22T06:31:53.264Z,1352.00
2022-08-22T06:32:59.148Z,1344.00
2022-08-22T06:33:53.109Z,1348.00
2022-08-22T06:34:53.028Z,1332.00
2022-08-22T06:35:52.955Z,1340.00
2022-08-22T06:36:52.876Z,1352.00
2022-08-22T06:37:52.815Z,1368.00
2022-08-22T06:38:52.728Z,1376.00
2022-08-22T06:39:53.753Z,1392.00
2022-08-22T06:40:52.568Z,1428.00
2022-08-22T06:41:52.494Z,1412.00
2022-08-22T06:42:52.428Z,1368.00
2022-08-22T06:43:52.345Z,1344.00
2022-08-22T06:44:52.267Z,1324.00
2022-08-22T06:45:52.190Z,1336.00
2022-08-22T06:46:52.112Z,1328.00
2022-08-22T06:47:53.526Z,1308.00
2022-08-22T06:48:51.955Z,1284.00
2022-08-22T06:49:51.888Z,1244.00
2022-08-22T06:50:51.808Z,1228.00
2022-08-22T06:51:51.729Z,1208.00
2022-08-22T06:52:51.653Z,1180.00
2022-08-22T06:53:51.573Z,1168.00
2022-08-22T06:54:51.503Z,1156.00
2022-08-22T06:55:51.421Z,1128.00
2022-08-22T06:56:51.350Z,1100.00
2022-08-22T06:57:51.272Z,1060.00
2022-08-22T06:58:51.192Z,1052.00
2022-08-22T06:59:51.120Z,984.00
2022-08-22T07:01:04.012Z,1044.00
2022-08-22T07:01:51.032Z,688.00
2022-08-22T07:02:50.887Z,1032.00
2022-08-22T07:03:50.837Z,1052.00
2022-08-22T07:04:50.736Z,1076.00
2022-08-22T07:05:50.672Z,1080.00
2022-08-22T07:06:50.581Z,1092.00
2022-08-22T07:07:50.508Z,1092.00
2022-08-22T07:08:50.429Z,1116.00
2022-08-22T07:09:50.355Z,1148.00
2022-08-22T07:10:50.314Z,1140.00
2022-08-22T07:11:50.199Z,1144.00
2022-08-22T07:12:50.128Z,1160.00
2022-08-22T07:13:50.048Z,1188.00
2022-08-22T07:14:49.971Z,1216.00
2022-08-22T07:15:49.912Z,1224.00
2022-08-22T07:16:49.868Z,1304.00
2022-08-22T07:17:49.743Z,1448.00
2022-08-22T07:18:49.668Z,1532.00
2022-08-22T07:19:49.595Z,1616.00
2022-08-22T07:20:49.514Z,1644.00
2022-08-22T07:21:49.434Z,1656.00
2022-08-22T07:22:49.371Z,1776.00
2022-08-22T07:23:49.286Z,1756.00
2022-08-22T07:24:49.209Z,1736.00
2022-08-22T07:25:49.133Z,1808.00
2022-08-22T07:26:49.057Z,1804.00
2022-08-22T07:27:49.075Z,1816.00
2022-08-22T07:28:51.555Z,1884.00
2022-08-22T07:29:48.833Z,1908.00
2022-08-22T07:30:48.750Z,1936.00
2022-08-22T07:31:49.067Z,2100.00
2022-08-22T07:32:48.598Z,2112.00
2022-08-22T07:33:48.520Z,2244.00
2022-08-22T07:34:48.447Z,2352.00
2022-08-22T07:35:53.599Z,2408.00
2022-08-22T07:36:48.294Z,2488.00
2022-08-22T07:37:48.216Z,2488.00
2022-08-22T07:38:48.148Z,2500.00
2022-08-22T07:39:48.096Z,2584.00
2022-08-22T07:40:47.991Z,2688.00
2022-08-22T07:41:47.916Z,2816.00
2022-08-22T07:42:47.843Z,2912.00
2022-08-22T07:43:47.766Z,2940.00
2022-08-22T07:44:47.687Z,2900.00
2022-08-22T07:45:47.609Z,2924.00
2022-08-22T07:46:47.535Z,2968.00
2022-08-22T07:47:49.800Z,3008.00
2022-08-22T07:49:07.676Z,3004.00
2022-08-22T07:49:49.852Z,3068.00
2022-08-22T07:50:47.235Z,3120.00
2022-08-22T07:51:47.166Z,3132.00
2022-08-22T07:52:47.080Z,3216.00
2022-08-22T07:53:47.004Z,3260.00
2022-08-22T07:54:46.928Z,3312.00
2022-08-22T07:55:49.877Z,3348.00
2022-08-22T07:56:46.777Z,3336.00
2022-08-22T07:57:46.719Z,3344.00
2022-08-22T07:58:46.630Z,3316.00
2022-08-22T07:59:46.556Z,3308.00
2022-08-22T08:00:46.479Z,3232.00
2022-08-22T08:01:46.425Z,3244.00
2022-08-22T08:02:46.327Z,3276.00
2022-08-22T08:03:46.250Z,3276.00
2022-08-22T08:04:46.176Z,3264.00
2022-08-22T08:05:46.102Z,3248.00
2022-08-22T08:06:46.024Z,3264.00
2022-08-22T08:07:45.948Z,3276.00
2022-08-22T08:08:45.870Z,3292.00
2022-08-22T08:09:45.799Z,3324.00
2022-08-22T08:10:45.728Z,3360.00
2022-08-22T08:11:45.652Z,3352.00
2022-08-22T08:12:45.576Z,3272.00
2022-08-22T08:13:45.500Z,3244.00
2022-08-22T08:14:45.420Z,3248.00
2022-08-22T08:15:45.344Z,3268.00
2022-08-22T08:16:45.270Z,3192.00
2022-08-22T08:17:45.197Z,3144.00
2022-08-22T08:18:45.123Z,3116.00
2022-08-22T08:19:45.045Z,3020.00
2022-08-22T08:20:44.971Z,2940.00
2022-08-22T08:21:44.892Z,2912.00
2022-08-22T08:22:44.821Z,2824.00
2022-08-22T08:23:44.749Z,2700.00
2022-08-22T08:24:45.123Z,2608.00
2022-08-22T08:25:44.594Z,2640.00
2022-08-22T08:26:44.519Z,2576.00
2022-08-22T08:27:44.447Z,2408.00
2022-08-22T08:28:44.369Z,2428.00
2022-08-22T08:29:44.300Z,2412.00
2022-08-22T08:30:44.220Z,2352.00
2022-08-22T08:31:45.114Z,2348.00
2022-08-22T08:32:44.072Z,2244.00
2022-08-22T08:33:44.003Z,2252.00
2022-08-22T08:34:43.920Z,2248.00
2022-08-22T08:36:02.503Z,2228.00
2022-08-22T08:36:43.770Z,2220.00
2022-08-22T08:37:43.694Z,2168.00
2022-08-22T08:38:43.620Z,2236.00
2022-08-22T08:39:43.587Z,2256.00
2022-08-22T08:40:43.470Z,2288.00
2022-08-22T08:41:43.393Z,2288.00
2022-08-22T08:42:43.316Z,2320.00
2022-08-22T08:43:43.254Z,2328.00
2022-08-22T08:44:43.172Z,2352.00
2022-08-22T08:45:43.100Z,2356.00
2022-08-22T08:46:43.023Z,2356.00
2022-08-22T08:47:42.944Z,2348.00
2022-08-22T08:48:42.871Z,2300.00
2022-08-22T08:49:43.010Z,2216.00
2022-08-22T08:50:43.307Z,2204.00
2022-08-22T08:51:42.647Z,2112.00
2022-08-22T08:52:42.574Z,2136.00
2022-08-22T08:53:43.396Z,2164.00
2022-08-22T08:54:42.428Z,2144.00
2022-08-22T08:55:42.345Z,2132.00
2022-08-22T08:56:42.772Z,2252.00
2022-08-22T08:57:42.238Z,2276.00
2022-08-22T08:58:42.146Z,2240.00
2022-08-22T08:59:44.076Z,2276.00
2022-08-22T09:00:41.974Z,2268.00
2022-08-22T09:01:41.989Z,2260.00
2022-08-22T09:02:42.470Z,2256.00
2022-08-22T09:03:41.854Z,2264.00
2022-08-22T09:04:41.678Z,2280.00
2022-08-22T09:05:41.599Z,2228.00
2022-08-22T09:06:42.606Z,2256.00
2022-08-22T09:07:41.455Z,2320.00
2022-08-22T09:08:41.376Z,2360.00
2022-08-22T09:09:41.300Z,2380.00
2022-08-22T09:10:41.226Z,2396.00
2022-08-22T09:11:41.154Z,2432.00
2022-08-22T09:12:41.700Z,2476.00
2022-08-22T09:13:41.090Z,2544.00
2022-08-22T09:14:40.928Z,2592.00
2022-08-22T09:15:40.853Z,2648.00
2022-08-22T09:17:40.702Z,2448.00
2022-08-22T09:18:40.628Z,2312.00
2022-08-22T09:19:40.553Z,2252.00
2022-08-22T09:20:40.480Z,2288.00
2022-08-22T09:21:40.404Z,2276.00
2022-08-22T09:22:50.704Z,2332.00
2022-08-22T09:23:40.308Z,2444.00
2022-08-22T09:24:40.180Z,2784.00
2022-08-22T09:25:40.465Z,3008.00
2022-08-22T09:26:40.029Z,3400.00
2022-08-22T09:27:39.962Z,3708.00
2022-08-22T09:28:39.884Z,4152.00
2022-08-22T09:30:39.736Z,4792.00
2022-08-22T09:31:47.962Z,4896.00
2022-08-22T09:32:39.584Z,5052.00
2022-08-22T09:33:39.586Z,5248.00
2022-08-22T09:34:39.436Z,5428.00
2022-08-22T09:35:39.364Z,5648.00
2022-08-22T09:36:39.285Z,5672.00
2022-08-22T09:37:39.212Z,5652.00
2022-08-22T09:38:39.135Z,5636.00
2022-08-22T09:39:39.124Z,5592.00
2022-08-22T09:40:15.633Z,4508.00
2022-08-22T09:40:38.999Z,5408.00
2022-08-22T09:41:38.916Z,5248.00
2022-08-22T09:42:38.862Z,5188.00
2022-08-22T09:43:39.590Z,5088.00
2022-08-22T09:44:39.677Z,5044.00
2022-08-22T09:45:38.623Z,4992.00
2022-08-22T09:46:38.560Z,4964.00
2022-08-22T09:47:39.173Z,4868.00
2022-08-22T09:48:38.400Z,4820.00
2022-08-22T09:49:38.343Z,4868.00
2022-08-22T09:50:38.257Z,4892.00
2022-08-22T09:51:38.177Z,4920.00
2022-08-22T09:52:38.101Z,4980.00
2022-08-22T09:53:38.094Z,5140.00
2022-08-22T09:54:37.952Z,5296.00
2022-08-22T09:55:37.882Z,5404.00
2022-08-22T09:56:37.804Z,5388.00
2022-08-22T09:57:45.005Z,5452.00
2022-08-22T09:59:42.561Z,5492.00
2022-08-22T10:00:41.548Z,5492.00
2022-08-22T10:02:45.356Z,5600.00
2022-08-22T10:03:45.281Z,5532.00
2022-08-22T10:05:49.142Z,5628.00
2022-08-22T10:06:49.049Z,5480.00
2022-08-22T10:08:41.839Z,5340.00
2022-08-22T10:09:41.764Z,5248.00
2022-08-22T10:11:45.641Z,5244.00
2022-08-22T10:12:45.548Z,5260.00
2022-08-22T10:14:50.487Z,5560.00
2022-08-22T10:15:49.316Z,5828.00
2022-08-22T10:16:49.237Z,6068.00
2022-08-22T10:17:49.168Z,6320.00
2022-08-22T10:18:53.867Z,6368.00
2022-08-22T10:19:49.022Z,6300.00
2022-08-22T10:20:48.944Z,6052.00
2022-08-22T10:21:48.876Z,6020.00
2022-08-22T10:22:48.804Z,6224.00
2022-08-22T10:23:55.958Z,6468.00
2022-08-22T10:25:52.569Z,6576.00
2022-08-22T10:26:52.483Z,6924.00
2022-08-22T10:27:52.416Z,7076.00
2022-08-22T10:28:52.339Z,7164.00
2022-08-22T10:29:52.268Z,6888.00
2022-08-22T10:30:52.192Z,6552.00
2022-08-22T10:31:58.735Z,6492.00
2022-08-22T10:32:52.046Z,6508.00
2022-08-22T10:33:51.972Z,6544.00
2022-08-22T10:34:51.900Z,6576.00
2022-08-22T10:35:51.827Z,6540.00
2022-08-22T10:36:51.751Z,6408.00
2022-08-22T10:37:51.687Z,6240.00
2022-08-22T10:38:51.612Z,6116.00
2022-08-22T10:39:51.561Z,6016.00
2022-08-22T10:40:51.491Z,5912.00
2022-08-22T10:41:51.390Z,5836.00
2022-08-22T10:42:51.319Z,5832.00
2022-08-22T10:44:00.757Z,5852.00
2022-08-22T10:44:51.168Z,5940.00
2022-08-22T10:45:51.100Z,6016.00
2022-08-22T10:46:51.030Z,6056.00
2022-08-22T10:47:50.953Z,6124.00
2022-08-22T10:48:50.880Z,6216.00
2022-08-22T10:49:51.253Z,6320.00
2022-08-22T10:50:50.735Z,6396.00
2022-08-22T10:51:50.660Z,6452.00
2022-08-22T10:52:50.591Z,6444.00
2022-08-22T10:53:50.516Z,6320.00
2022-08-22T10:54:50.445Z,6124.00
2022-08-22T10:55:50.371Z,5872.00
2022-08-22T10:56:50.303Z,5636.00
2022-08-22T10:57:52.794Z,5432.00
2022-08-22T10:58:50.156Z,5284.00
2022-08-22T10:59:50.082Z,5204.00
2022-08-22T11:00:50.417Z,5236.00
2022-08-22T11:01:49.956Z,5436.00
2022-08-22T11:02:49.858Z,5764.00
2022-08-22T11:03:49.789Z,6072.00
2022-08-22T11:04:49.718Z,6276.00
2022-08-22T11:05:50.836Z,6480.00
2022-08-22T11:06:49.589Z,6568.00
2022-08-22T11:07:50.236Z,6724.00
2022-08-22T11:08:49.432Z,6796.00
2022-08-22T11:09:49.355Z,7032.00
2022-08-22T11:10:49.280Z,7060.00
2022-08-22T11:11:49.643Z,7092.00
2022-08-22T11:12:49.143Z,7052.00
2022-08-22T11:13:49.723Z,7008.00
2022-08-22T11:14:48.991Z,6996.00
2022-08-22T11:15:48.924Z,6944.00
2022-08-22T11:16:48.855Z,7140.00
2022-08-22T11:17:53.855Z,7240.00
2022-08-22T11:19:02.062Z,7304.00
2022-08-22T11:19:48.636Z,7468.00
2022-08-22T11:20:48.556Z,7624.00
2022-08-22T11:21:48.492Z,7756.00
2022-08-22T11:22:48.415Z,7872.00
2022-08-22T11:23:48.343Z,7920.00
2022-08-22T11:24:56.503Z,7964.00
2022-08-22T11:25:53.688Z,8036.00
2022-08-22T11:26:48.125Z,8056.00
2022-08-22T11:27:48.050Z,8112.00
2022-08-22T11:28:47.982Z,8196.00
2022-08-22T11:29:47.918Z,8292.00
2022-08-22T11:30:47.841Z,8388.00
2022-08-22T11:31:51.730Z,8240.00
2022-08-22T11:32:47.692Z,8572.00
2022-08-22T11:33:47.827Z,8488.00
2022-08-22T11:34:47.557Z,8708.00
2022-08-22T11:35:47.486Z,8712.00
2022-08-22T11:36:47.407Z,8792.00
2022-08-22T11:37:47.334Z,9036.00
2022-08-22T11:38:47.269Z,9256.00
2022-08-22T11:39:47.312Z,9380.00
2022-08-22T11:40:47.122Z,9256.00
2022-08-22T11:41:52.278Z,8696.00
2022-08-22T11:42:47.790Z,8992.00
2022-08-22T11:43:46.909Z,9300.00
2022-08-22T11:44:50.742Z,9596.00
2022-08-22T11:45:46.764Z,9592.00
2022-08-22T11:46:46.691Z,9532.00
2022-08-22T11:47:46.624Z,9316.00
2022-08-22T11:48:48.587Z,8520.00
2022-08-22T11:49:46.483Z,7916.00
2022-08-22T11:50:46.407Z,7512.00
2022-08-22T11:51:46.347Z,7440.00
2022-08-22T11:52:51.828Z,7584.00
2022-08-22T11:53:46.196Z,7988.00
2022-08-22T11:54:46.126Z,8392.00
2022-08-22T11:55:46.054Z,8732.00
2022-08-22T11:56:45.978Z,9052.00
2022-08-22T11:57:45.910Z,8708.00
2022-08-22T11:58:45.849Z,8080.00
2022-08-22T11:59:45.772Z,7780.00
2022-08-22T12:00:45.694Z,7832.00
2022-08-22T12:01:45.710Z,8100.00
2022-08-22T12:02:47.425Z,8496.00
2022-08-22T12:03:45.485Z,8952.00
2022-08-22T12:04:45.416Z,8972.00
2022-08-22T12:05:45.348Z,9768.00
2022-08-22T12:06:45.271Z,9808.00
2022-08-22T12:07:50.503Z,9844.00
2022-08-22T12:08:45.136Z,10072.00
2022-08-22T12:09:45.063Z,10484.00
2022-08-22T12:10:44.989Z,10496.00
2022-08-22T12:11:44.914Z,10720.00
2022-08-22T12:12:44.847Z,10936.00
2022-08-22T12:13:44.776Z,10904.00
2022-08-22T12:14:44.710Z,10800.00
2022-08-22T12:15:44.633Z,10840.00
2022-08-22T12:16:45.062Z,10784.00
2022-08-22T12:17:55.808Z,10732.00
2022-08-22T12:18:45.040Z,10704.00
2022-08-22T12:20:12.552Z,10932.00
2022-08-22T12:20:45.339Z,10956.00
2022-08-22T12:21:44.214Z,10948.00
2022-08-22T12:22:44.329Z,10824.00
2022-08-22T12:23:49.316Z,11024.00
2022-08-22T12:24:44.000Z,11260.00
2022-08-22T12:25:44.571Z,11632.00
2022-08-22T12:26:43.860Z,11488.00
2022-08-22T12:27:48.178Z,11664.00
2022-08-22T12:28:43.722Z,12348.00
2022-08-22T12:29:44.850Z,12808.00
2022-08-22T12:30:43.585Z,13148.00
2022-08-22T12:31:43.513Z,13652.00
2022-08-22T12:32:43.963Z,14368.00
2022-08-22T12:33:43.374Z,15316.00
2022-08-22T12:34:43.309Z,16384.00